createdAt,value
2019-02-02T00:01:52.951Z,65.20
2019-02-02T00:04:21.845Z,62.07
2019-02-02T00:06:56.771Z,61.97
2019-02-02T00:09:25.657Z,56.97
2019-02-02T00:11:54.651Z,56.77
2019-02-02T00:14:23.656Z,56.43
2019-02-02T00:16:52.553Z,56.60
2019-02-02T00:19:21.502Z,54.73
2019-02-02T00:21:58.409Z,63.13
2019-02-02T00:24:27.304Z,56.67
2019-02-02T00:26:56.191Z,60.30
2019-02-02T00:29:25.148Z,58.50
2019-02-02T00:31:54.076Z,54.00
2019-02-02T00:34:23.086Z,59.40
2019-02-02T00:36:52.372Z,56.73
2019-02-02T00:39:21.376Z,64.10
2019-02-02T00:41:51.683Z,54.60
2019-02-02T00:44:20.501Z,58.13
2019-02-02T00:46:49.416Z,61.00
2019-02-02T00:49:24.252Z,57.43
2019-02-02T00:51:53.126Z,57.40
2019-02-02T00:54:21.994Z,63.00
2019-02-02T00:56:50.904Z,65.53
2019-02-02T00:59:19.859Z,60.93
2019-02-02T01:01:48.757Z,58.03
2019-02-02T01:04:17.669Z,62.03
2019-02-02T01:06:47.364Z,57.63
2019-02-02T01:09:20.571Z,57.97
2019-02-02T01:11:49.612Z,58.10
2019-02-02T01:14:24.176Z,60.67
2019-02-02T01:16:53.080Z,51.20
2019-02-02T01:19:22.085Z,54.90
2019-02-02T01:21:50.984Z,59.00
2019-02-02T01:24:19.930Z,68.30
2019-02-02T01:26:48.902Z,70.87
2019-02-02T01:29:18.006Z,64.97
2019-02-02T01:31:47.269Z,62.23
2019-02-02T01:34:16.218Z,61.67
2019-02-02T01:36:45.587Z,60.00
2019-02-02T01:39:14.926Z,64.67
2019-02-02T01:41:44.319Z,63.07
2019-02-02T01:44:13.265Z,58.63
2019-02-02T01:47:09.665Z,56.53
2019-02-02T01:49:38.594Z,56.93
2019-02-02T01:55:18.376Z,59.33
2019-02-02T01:57:47.329Z,62.57
2019-02-02T02:00:17.937Z,59.47
2019-02-02T02:02:46.818Z,64.50
2019-02-02T02:05:15.678Z,68.17
2019-02-02T02:07:47.444Z,63.43
2019-02-02T02:10:16.766Z,68.00
2019-02-02T02:12:45.688Z,61.50
2019-02-02T02:15:15.270Z,65.10
2019-02-02T02:17:44.906Z,63.87
2019-02-02T02:20:14.506Z,64.73
2019-02-02T02:23:04.196Z,57.40
2019-02-02T02:25:52.134Z,57.93
2019-02-02T02:28:27.785Z,63.27
2019-02-02T02:30:51.841Z,59.07
2019-02-02T02:33:21.115Z,55.97
2019-02-02T02:35:50.113Z,54.60
2019-02-02T02:38:19.164Z,54.10
2019-02-02T02:40:48.066Z,59.40
2019-02-02T02:43:16.953Z,53.30
2019-02-02T02:45:45.830Z,50.27
2019-02-02T02:48:32.302Z,51.13
2019-02-02T02:51:01.577Z,51.40
2019-02-02T02:53:30.497Z,53.43
2019-02-02T02:55:59.472Z,53.70
2019-02-02T02:58:40.416Z,49.90
2019-02-02T03:01:17.849Z,50.47
2019-02-02T03:03:46.787Z,48.93
2019-02-02T03:06:16.041Z,47.43
2019-02-02T03:08:44.962Z,46.60
2019-02-02T03:11:13.896Z,46.30
2019-02-02T03:13:43.090Z,45.23
2019-02-02T03:16:12.071Z,49.00
2019-02-02T03:18:40.983Z,44.77
2019-02-02T03:21:09.898Z,47.30
2019-02-02T03:23:57.833Z,44.03
2019-02-02T03:26:26.725Z,52.13
2019-02-02T03:28:55.724Z,49.33
2019-02-02T03:31:24.619Z,46.63
2019-02-02T03:33:53.515Z,43.77
2019-02-02T03:36:24.651Z,44.37
2019-02-02T03:38:53.564Z,41.70
2019-02-02T03:42:02.206Z,48.73
2019-02-02T03:44:31.213Z,45.03
2019-02-02T03:47:00.142Z,47.47
2019-02-02T03:49:29.526Z,41.60
2019-02-02T03:51:58.444Z,46.13
2019-02-02T03:54:27.515Z,45.73
2019-02-02T03:56:56.494Z,41.53
2019-02-02T03:59:25.433Z,39.13
2019-02-02T04:01:54.325Z,42.87
2019-02-02T04:04:23.211Z,38.23
2019-02-02T04:06:52.140Z,40.37
2019-02-02T04:09:31.360Z,36.50
2019-02-02T04:12:00.261Z,40.83
2019-02-02T04:14:29.275Z,39.20
2019-02-02T04:16:58.165Z,38.27
2019-02-02T04:19:27.051Z,42.20
2019-02-02T04:22:06.291Z,40.67
2019-02-02T04:24:35.186Z,43.40
2019-02-02T04:27:04.146Z,42.03
2019-02-02T04:29:33.096Z,44.37
2019-02-02T04:32:02.152Z,41.80
2019-02-02T04:34:31.015Z,42.23
2019-02-02T04:36:59.907Z,42.70
2019-02-02T04:39:29.160Z,45.13
2019-02-02T04:45:20.684Z,39.10
2019-02-02T04:51:12.037Z,39.13
2019-02-02T04:53:41.004Z,37.87
2019-02-02T04:56:09.963Z,42.13
2019-02-02T04:58:39.231Z,38.80
2019-02-02T05:01:08.505Z,35.70
2019-02-02T05:03:37.457Z,37.77
2019-02-02T05:06:31.497Z,39.70
2019-02-02T05:09:01.178Z,33.80
2019-02-02T05:11:30.084Z,35.63
2019-02-02T05:14:00.113Z,38.70
2019-02-02T05:16:28.975Z,36.97
2019-02-02T05:18:58.168Z,39.10
2019-02-02T05:21:27.190Z,39.17
2019-02-02T05:23:56.092Z,39.03
2019-02-02T05:26:25.033Z,37.37
2019-02-02T05:28:53.941Z,33.03
2019-02-02T05:31:22.924Z,37.40
2019-02-02T05:33:53.727Z,38.00
2019-02-02T05:36:27.041Z,34.70
2019-02-02T05:38:55.973Z,38.57
2019-02-02T05:41:25.657Z,36.13
2019-02-02T05:43:54.987Z,40.50
2019-02-02T05:46:23.868Z,39.80
2019-02-02T05:48:52.806Z,37.50
2019-02-02T05:51:21.744Z,37.33
2019-02-02T05:53:50.654Z,42.40
2019-02-02T05:56:19.725Z,41.37
2019-02-02T05:58:51.657Z,44.33
2019-02-02T06:01:21.285Z,43.63
2019-02-02T06:03:50.183Z,56.13
2019-02-02T06:06:19.997Z,51.13
2019-02-02T06:08:48.915Z,62.40
2019-02-02T06:11:18.204Z,58.43
2019-02-02T06:13:47.524Z,51.10
2019-02-02T06:16:16.787Z,43.53
2019-02-02T06:18:45.739Z,44.40
2019-02-02T06:21:14.624Z,42.50
2019-02-02T06:23:43.540Z,45.37
2019-02-02T06:26:12.444Z,44.77
2019-02-02T06:28:41.772Z,46.30
2019-02-02T06:31:10.751Z,47.63
2019-02-02T06:33:39.647Z,53.40
2019-02-02T06:36:38.064Z,54.33
2019-02-02T06:39:10.600Z,67.77
2019-02-02T06:41:39.555Z,75.80
2019-02-02T06:44:08.801Z,54.43
2019-02-02T06:46:43.653Z,70.77
2019-02-02T06:49:27.698Z,97.20
2019-02-02T06:51:57.047Z,83.50
2019-02-02T06:54:25.979Z,61.03
2019-02-02T06:56:54.895Z,48.17
2019-02-02T06:59:23.842Z,53.53
2019-02-02T07:02:04.738Z,53.00
2019-02-02T07:04:33.694Z,61.77
2019-02-02T07:07:03.081Z,65.13
2019-02-02T07:09:32.317Z,66.00
2019-02-02T07:12:01.361Z,89.43
2019-02-02T07:14:30.744Z,82.97
2019-02-02T07:17:11.980Z,60.07
2019-02-02T07:19:40.897Z,92.80
2019-02-02T07:22:09.823Z,133.93
2019-02-02T07:24:49.949Z,160.40
2019-02-02T07:27:17.468Z,99.93
2019-02-02T07:29:46.778Z,172.57
2019-02-02T07:32:15.690Z,201.93
2019-02-02T07:34:44.647Z,126.50
2019-02-02T07:37:13.633Z,117.90
2019-02-02T07:39:42.849Z,132.97
2019-02-02T07:42:11.743Z,69.17
2019-02-02T07:44:41.045Z,88.80
2019-02-02T07:47:09.951Z,69.87
2019-02-02T07:49:38.842Z,54.23
2019-02-02T07:52:07.736Z,50.30
2019-02-02T07:54:37.009Z,56.07
2019-02-02T07:57:05.949Z,46.00
2019-02-02T07:59:35.197Z,47.70
2019-02-02T08:02:04.427Z,53.77
2019-02-02T08:04:33.730Z,59.63
2019-02-02T08:07:02.999Z,58.90
2019-02-02T08:09:32.722Z,50.27
2019-02-02T08:12:01.948Z,53.60
2019-02-02T08:14:30.927Z,58.77
2019-02-02T08:17:25.495Z,60.70
2019-02-02T08:19:54.792Z,51.13
2019-02-02T08:22:38.733Z,54.97
2019-02-02T08:25:08.152Z,50.43
2019-02-02T08:27:38.253Z,39.50
2019-02-02T08:30:20.881Z,64.60
2019-02-02T08:32:50.103Z,84.23
2019-02-02T08:35:18.986Z,47.07
2019-02-02T08:38:05.516Z,31.17
2019-02-02T08:40:34.794Z,35.87
2019-02-02T08:43:04.068Z,41.57
2019-02-02T08:48:45.994Z,38.53
2019-02-02T08:51:14.949Z,44.60
2019-02-02T08:53:44.607Z,37.77
2019-02-02T08:56:13.473Z,39.30
2019-02-02T08:58:42.380Z,38.27
2019-02-02T09:01:11.661Z,39.30
2019-02-02T09:03:41.011Z,42.90
2019-02-02T09:06:09.896Z,39.10
2019-02-02T09:08:50.949Z,46.33
2019-02-02T09:11:19.885Z,39.23
2019-02-02T09:13:48.868Z,41.43
2019-02-02T09:16:17.793Z,34.70
2019-02-02T09:18:46.766Z,38.77
2019-02-02T09:21:15.724Z,33.27
2019-02-02T09:23:49.185Z,36.87
2019-02-02T09:26:18.134Z,35.80
2019-02-02T09:28:47.099Z,32.37
2019-02-02T09:31:16.286Z,33.67
2019-02-02T09:33:51.612Z,35.47
2019-02-02T09:36:20.513Z,35.23
2019-02-02T09:38:49.411Z,32.70
2019-02-02T09:41:18.680Z,38.43
2019-02-02T09:43:47.604Z,36.00
2019-02-02T09:46:16.481Z,37.27
2019-02-02T09:48:45.485Z,43.47
2019-02-02T09:51:16.343Z,39.57
2019-02-02T09:53:45.616Z,41.20
2019-02-02T09:56:14.471Z,42.70
2019-02-02T09:58:43.368Z,42.80
2019-02-02T10:01:12.809Z,38.33
2019-02-02T10:03:42.165Z,40.43
2019-02-02T10:06:11.043Z,37.83
2019-02-02T10:08:40.156Z,37.33
2019-02-02T10:11:09.103Z,38.07
2019-02-02T10:13:37.943Z,36.93
2019-02-02T10:16:07.146Z,32.30
2019-02-02T10:18:36.067Z,34.17
2019-02-02T10:21:05.088Z,30.07
2019-02-02T10:23:34.441Z,30.20
2019-02-02T10:26:04.154Z,28.63
2019-02-02T10:28:33.442Z,28.33
2019-02-02T10:31:02.682Z,31.03
2019-02-02T10:33:31.951Z,28.60
2019-02-02T10:36:00.821Z,28.27
2019-02-02T10:38:29.727Z,28.47
2019-02-02T10:41:17.164Z,23.97
2019-02-02T10:43:46.863Z,25.10
2019-02-02T10:46:15.734Z,23.73
2019-02-02T10:48:44.983Z,23.07
2019-02-02T10:51:13.875Z,24.23
2019-02-02T10:53:42.765Z,21.37
2019-02-02T10:56:11.665Z,22.57
2019-02-02T10:58:40.543Z,26.40
2019-02-02T11:01:09.804Z,33.30
2019-02-02T11:03:51.189Z,32.00
2019-02-02T11:06:20.130Z,31.60
2019-02-02T11:08:48.965Z,27.20
2019-02-02T11:11:17.898Z,24.73
2019-02-02T11:13:47.343Z,24.50
2019-02-02T11:16:16.824Z,27.07
2019-02-02T11:18:45.804Z,25.57
2019-02-02T11:21:14.659Z,27.60
2019-02-02T11:23:44.075Z,23.80
2019-02-02T11:26:13.051Z,24.23
2019-02-02T11:28:42.004Z,25.73
2019-02-02T11:31:11.584Z,25.03
2019-02-02T11:33:48.555Z,23.27
2019-02-02T11:36:17.522Z,21.80
2019-02-02T11:38:46.728Z,22.00
2019-02-02T11:41:15.919Z,23.37
2019-02-02T11:43:45.632Z,26.57
2019-02-02T11:46:14.495Z,24.33
2019-02-02T11:48:43.714Z,26.67
2019-02-02T11:51:12.606Z,24.93
2019-02-02T11:53:41.468Z,25.60
2019-02-02T11:56:16.254Z,23.63
2019-02-02T11:58:45.530Z,24.93
2019-02-02T12:01:14.413Z,22.33
2019-02-02T12:03:44.096Z,21.60
2019-02-02T12:06:12.984Z,22.50
2019-02-02T12:08:41.839Z,18.37
2019-02-02T12:11:10.711Z,18.83
2019-02-02T12:13:40.067Z,19.50
2019-02-02T12:16:08.951Z,24.07
2019-02-02T12:18:38.224Z,21.77
2019-02-02T12:21:07.092Z,20.77
2019-02-02T12:23:36.051Z,17.97
2019-02-02T12:26:20.623Z,23.27
2019-02-02T12:28:50.464Z,21.37
2019-02-02T12:31:19.741Z,18.90
2019-02-02T12:33:48.700Z,16.97
2019-02-02T12:36:17.587Z,19.20
2019-02-02T12:38:46.821Z,16.73
2019-02-02T12:41:15.810Z,18.50
2019-02-02T12:43:45.227Z,17.30
2019-02-02T12:46:14.199Z,15.27
2019-02-02T12:48:43.086Z,17.00
2019-02-02T12:51:13.012Z,16.60
2019-02-02T12:53:41.974Z,16.87
2019-02-02T12:56:10.856Z,13.57
2019-02-02T12:58:40.132Z,14.17
2019-02-02T13:01:09.085Z,16.50
2019-02-02T13:03:37.930Z,16.93
2019-02-02T13:06:06.835Z,18.20
2019-02-02T13:08:35.797Z,13.70
2019-02-02T13:11:04.702Z,12.13
2019-02-02T13:13:34.002Z,15.70
2019-02-02T13:16:02.841Z,14.83
2019-02-02T13:18:31.701Z,16.33
2019-02-02T13:21:00.627Z,18.10
2019-02-02T13:23:29.492Z,20.93
2019-02-02T13:26:05.541Z,18.40
2019-02-02T13:28:28.952Z,15.77
2019-02-02T13:30:58.252Z,21.10
2019-02-02T13:33:27.569Z,21.60
2019-02-02T13:35:56.455Z,26.47
2019-02-02T13:38:25.750Z,24.37
2019-02-02T13:40:57.464Z,25.43
2019-02-02T13:43:44.615Z,22.33
2019-02-02T13:46:13.497Z,28.90
2019-02-02T13:48:42.795Z,28.80
2019-02-02T13:51:34.829Z,28.20
2019-02-02T13:54:04.371Z,29.90
2019-02-02T13:56:59.309Z,31.50
2019-02-02T13:59:28.193Z,32.03
2019-02-02T14:01:58.164Z,28.20
2019-02-02T14:04:27.467Z,26.17
2019-02-02T14:06:56.391Z,26.23
2019-02-02T14:09:25.732Z,27.33
2019-02-02T14:15:17.371Z,30.40
2019-02-02T14:17:56.307Z,38.00
2019-02-02T14:20:25.186Z,35.53
2019-02-02T14:22:54.078Z,32.17
2019-02-02T14:25:22.959Z,31.53
2019-02-02T14:27:52.155Z,27.30
2019-02-02T14:30:21.798Z,25.77
2019-02-02T14:32:50.735Z,21.83
2019-02-02T14:35:20.141Z,23.37
2019-02-02T14:37:49.083Z,23.07
2019-02-02T14:40:18.780Z,23.00
2019-02-02T14:43:19.882Z,20.97
2019-02-02T14:45:48.772Z,21.27
2019-02-02T14:48:17.659Z,20.67
2019-02-02T14:50:46.536Z,23.10
2019-02-02T14:53:16.674Z,20.90
2019-02-02T14:55:46.125Z,23.30
2019-02-02T14:58:17.396Z,20.37
2019-02-02T15:00:46.286Z,23.13
2019-02-02T15:03:25.603Z,21.73
2019-02-02T15:05:46.258Z,25.07
2019-02-02T15:08:15.147Z,22.77
2019-02-02T15:10:44.489Z,21.73
2019-02-02T15:13:13.407Z,22.03
2019-02-02T15:15:51.695Z,23.83
2019-02-02T15:18:20.549Z,20.90
2019-02-02T15:20:49.425Z,21.30
2019-02-02T15:23:18.756Z,22.00
2019-02-02T15:25:47.679Z,22.67
2019-02-02T15:28:16.604Z,20.87
2019-02-02T15:30:45.972Z,20.90
2019-02-02T15:33:14.900Z,21.37
2019-02-02T15:35:43.771Z,27.30
2019-02-02T15:38:12.642Z,23.10
2019-02-02T15:40:42.321Z,22.17
2019-02-02T15:43:11.253Z,22.27
2019-02-02T15:45:43.494Z,18.33
2019-02-02T15:48:12.702Z,20.47
2019-02-02T15:50:42.010Z,21.53
2019-02-02T15:53:11.287Z,23.60
2019-02-02T15:55:40.189Z,23.60
2019-02-02T15:58:09.104Z,23.77
2019-02-02T16:00:38.544Z,25.37
2019-02-02T16:03:07.465Z,24.03
2019-02-02T16:05:36.865Z,23.27
2019-02-02T16:08:13.546Z,26.70
2019-02-02T16:10:46.426Z,26.17
2019-02-02T16:13:15.367Z,23.47
2019-02-02T16:15:44.419Z,21.97
2019-02-02T16:18:13.730Z,24.40
2019-02-02T16:20:48.995Z,27.53
2019-02-02T16:23:17.868Z,27.50
2019-02-02T16:25:46.767Z,28.77
2019-02-02T16:28:15.706Z,28.33
2019-02-02T16:30:44.682Z,28.83
2019-02-02T16:33:13.946Z,28.30
2019-02-02T16:35:43.196Z,27.20
2019-02-02T16:38:24.590Z,31.67
2019-02-02T16:40:53.595Z,29.83
2019-02-02T16:43:22.497Z,30.50
2019-02-02T16:46:02.695Z,32.77
2019-02-02T16:48:31.596Z,32.80
2019-02-02T16:51:00.522Z,28.50
2019-02-02T16:53:29.458Z,28.23
2019-02-02T16:55:58.518Z,29.93
2019-02-02T16:58:27.459Z,33.13
2019-02-02T17:01:09.935Z,29.93
2019-02-02T17:03:38.881Z,30.17
2019-02-02T17:06:09.938Z,31.33
2019-02-02T17:08:39.047Z,31.80
2019-02-02T17:11:26.500Z,31.67
2019-02-02T17:13:55.440Z,35.93
2019-02-02T17:16:33.147Z,34.97
2019-02-02T17:19:02.441Z,37.63
2019-02-02T17:21:46.287Z,33.03
2019-02-02T17:24:15.183Z,33.20
2019-02-02T17:26:44.468Z,35.53
2019-02-02T17:29:13.363Z,34.13
2019-02-02T17:31:42.291Z,30.00
2019-02-02T17:34:11.556Z,34.30
2019-02-02T17:36:40.510Z,32.80
2019-02-02T17:39:09.843Z,36.77
2019-02-02T17:41:39.143Z,38.97
2019-02-02T17:44:08.388Z,34.20
2019-02-02T17:46:37.320Z,41.07
2019-02-02T17:49:06.203Z,42.03
2019-02-02T17:51:50.548Z,37.13
2019-02-02T17:54:19.447Z,41.97
2019-02-02T17:56:48.369Z,43.67
2019-02-02T17:59:50.538Z,46.30
2019-02-02T18:02:19.438Z,43.80
2019-02-02T18:05:00.807Z,43.50
2019-02-02T18:07:29.700Z,44.73
2019-02-02T18:09:58.902Z,51.90
2019-02-02T18:12:27.786Z,44.40
2019-02-02T18:14:56.658Z,41.20
2019-02-02T18:17:25.575Z,40.87
2019-02-02T18:19:54.564Z,48.47
2019-02-02T18:22:23.452Z,45.33
2019-02-02T18:24:56.461Z,42.60
2019-02-02T18:27:30.706Z,50.80
2019-02-02T18:29:59.615Z,47.47
2019-02-02T18:32:28.472Z,45.37
2019-02-02T18:34:57.728Z,47.30
2019-02-02T18:37:26.964Z,47.23
2019-02-02T18:39:56.242Z,39.53
2019-02-02T18:42:25.152Z,48.53
2019-02-02T18:44:54.132Z,59.67
2019-02-02T18:47:23.371Z,53.60
2019-02-02T18:49:52.215Z,47.40
2019-02-02T18:52:21.188Z,41.93
2019-02-02T18:54:50.085Z,41.47
2019-02-02T18:57:19.111Z,48.43
2019-02-02T18:59:47.998Z,46.23
2019-02-02T19:02:17.959Z,48.00
2019-02-02T19:04:46.875Z,45.67
2019-02-02T19:07:25.782Z,51.00
2019-02-02T19:09:55.133Z,50.17
2019-02-02T19:12:25.010Z,47.87
2019-02-02T19:15:00.046Z,47.47
2019-02-02T19:17:28.932Z,45.53
2019-02-02T19:19:58.557Z,44.30
2019-02-02T19:22:27.438Z,44.73
2019-02-02T19:24:56.341Z,46.30
2019-02-02T19:27:32.086Z,38.17
2019-02-02T19:30:01.005Z,48.20
2019-02-02T19:32:30.293Z,45.10
2019-02-02T19:35:01.305Z,40.70
2019-02-02T19:37:30.501Z,41.87
2019-02-02T19:43:24.125Z,41.57
2019-02-02T19:45:55.235Z,40.27
2019-02-02T19:48:24.139Z,38.23
2019-02-02T19:51:19.049Z,41.07
2019-02-02T19:53:47.934Z,38.60
2019-02-02T19:56:44.631Z,41.70
2019-02-02T19:59:13.703Z,39.13
2019-02-02T20:01:42.957Z,46.87
2019-02-02T20:04:12.190Z,52.07
2019-02-02T20:06:41.079Z,49.60
2019-02-02T20:09:10.022Z,46.10
2019-02-02T20:11:40.996Z,57.77
2019-02-02T20:14:09.846Z,82.57
2019-02-02T20:16:38.810Z,74.67
2019-02-02T20:19:08.789Z,65.70
2019-02-02T20:21:37.663Z,62.50
2019-02-02T20:24:07.275Z,55.10
2019-02-02T20:26:54.727Z,46.80
2019-02-02T20:29:23.680Z,51.27
2019-02-02T20:31:52.904Z,51.80
2019-02-02T20:34:21.931Z,48.20
2019-02-02T20:36:50.912Z,43.40
2019-02-02T20:39:25.651Z,46.00
2019-02-02T20:42:06.799Z,50.20
2019-02-02T20:47:46.619Z,44.00
2019-02-02T20:50:16.640Z,46.03
2019-02-02T20:52:47.531Z,47.60
2019-02-02T20:55:17.195Z,48.30
2019-02-02T20:57:47.134Z,47.93
2019-02-02T21:00:17.112Z,46.93
2019-02-02T21:02:48.208Z,45.83
2019-02-02T21:05:17.130Z,46.00
2019-02-02T21:07:46.060Z,45.83
2019-02-02T21:10:16.115Z,42.47
2019-02-02T21:12:45.114Z,45.03
2019-02-02T21:15:14.149Z,41.40
2019-02-02T21:17:43.148Z,41.87
2019-02-02T21:20:13.333Z,42.67
2019-02-02T21:22:42.591Z,40.20
2019-02-02T21:25:11.530Z,38.17
2019-02-02T21:27:46.180Z,43.00
2019-02-02T21:30:22.296Z,45.43
2019-02-02T21:32:51.586Z,44.93
2019-02-02T21:35:20.847Z,45.97
2019-02-02T21:37:49.977Z,45.70
2019-02-02T21:40:20.123Z,46.83
2019-02-02T21:42:52.031Z,45.40
2019-02-02T21:45:20.899Z,46.63
2019-02-02T21:47:53.157Z,46.13
2019-02-02T21:50:22.392Z,51.40
2019-02-02T21:52:51.596Z,46.30
2019-02-02T21:55:57.357Z,51.57
2019-02-02T21:58:26.268Z,47.90
2019-02-02T22:00:55.552Z,48.20
2019-02-02T22:03:24.452Z,48.23
2019-02-02T22:05:53.366Z,51.30
2019-02-02T22:08:22.586Z,46.73
2019-02-02T22:10:52.260Z,47.60
2019-02-02T22:13:21.099Z,50.90
2019-02-02T22:15:50.011Z,52.53
2019-02-02T22:18:21.716Z,51.17
2019-02-02T22:20:49.577Z,51.43
2019-02-02T22:23:18.487Z,50.70
2019-02-02T22:25:47.393Z,53.00
2019-02-02T22:28:16.313Z,51.60
2019-02-02T22:30:45.510Z,51.73
2019-02-02T22:33:14.704Z,52.70
2019-02-02T22:35:43.714Z,49.33
2019-02-02T22:38:31.130Z,52.27
2019-02-02T22:40:59.995Z,53.13
2019-02-02T22:43:28.985Z,53.03
2019-02-02T22:45:58.851Z,49.53
2019-02-02T22:48:39.775Z,50.80
2019-02-02T22:51:08.676Z,48.00
2019-02-02T22:53:38.397Z,52.20
2019-02-02T22:56:07.345Z,52.00
2019-02-02T22:58:49.715Z,54.50
2019-02-02T23:01:27.467Z,51.87
2019-02-02T23:04:21.675Z,51.60
2019-02-02T23:07:02.552Z,53.77
2019-02-02T23:10:06.363Z,52.50
2019-02-02T23:12:55.346Z,58.00
2019-02-02T23:15:52.975Z,59.57
2019-02-02T23:18:22.524Z,53.20
2019-02-02T23:20:51.586Z,55.27
2019-02-02T23:23:20.386Z,58.67
2019-02-02T23:25:49.311Z,53.43
2019-02-02T23:28:18.248Z,58.27
2019-02-02T23:30:47.172Z,58.23
2019-02-02T23:40:13.504Z,55.37
2019-02-02T23:42:42.537Z,53.53
2019-02-02T23:45:11.824Z,61.70
2019-02-02T23:47:40.755Z,53.40
2019-02-02T23:50:09.677Z,53.70
2019-02-02T23:52:38.608Z,54.67
2019-02-02T23:55:07.526Z,54.23
2019-02-02T23:57:36.637Z,58.53
